Time;durP1;ratioP1;P1;durP2;ratioP2;P2;SDS_P1;SDS_P2;PMS_P1;PMS_P2;Temp;Humidity;BMP_temperature;BMP_pressure;BME280_temperature;BME280_humidity;BME280_pressure;Samples;Min_cycle;Max_cycle;Signal;HPM_P1;HPM_P2
2022/08/12 10:30:16;;;;;;;21.23;13.13;;;25.90;99.90;;;;;;4845960;29;20045;-91
2022/08/12 10:33:50;;;;;;;;;;;;;;;;;;;;;
2022/08/12 10:37:19;;;;;;;20.75;13.63;;;23.80;99.90;;;;;;4755425;30;20047;-92
2022/08/12 10:39:54;;;;;;;25.52;14.80;;;23.50;99.90;;;;;;4746353;30;20518;-91
2022/08/12 10:48:19;;;;;;;17.33;11.02;;;22.70;99.90;;;;;;4766474;23;20075;-92
2022/08/12 10:50:49;;;;;;;16.70;10.55;;;22.40;99.90;;;;;;4883626;29;20148;-92
2022/08/12 10:53:20;;;;;;;18.35;11.40;;;22.10;99.90;;;;;;4868103;29;20036;-92
2022/08/12 10:56:09;;;;;;;15.93;10.80;;;21.90;99.90;;;;;;4888503;29;20037;-92
2022/08/12 11:04:58;;;;;;;14.82;9.25;;;21.70;99.90;;;;;;5605701;23;20099;-93
2022/08/12 11:07:34;;;;;;;15.82;10.02;;;21.70;99.90;;;;;;4887473;29;20072;-92
2022/08/12 11:10:21;;;;;;;16.98;10.20;;;21.70;99.90;;;;;;4903088;29;20033;-93
2022/08/12 11:12:49;;;;;;;18.90;10.05;;;21.90;99.90;;;;;;4885531;29;20123;-91
2022/08/12 11:15:16;;;;;;;17.30;9.75;;;22.00;99.90;;;;;;4870301;29;20521;-92
2022/08/12 11:17:42;;;;;;;12.38;9.45;;;22.00;99.90;;;;;;4869757;29;20041;-91
2022/08/12 11:20:09;;;;;;;14.50;9.40;;;22.00;99.90;;;;;;4885612;29;20025;-92
2022/08/12 11:22:36;;;;;;;15.32;9.70;;;22.00;99.90;;;;;;4886141;29;20028;-91
2022/08/12 11:25:15;;;;;;;17.92;11.18;;;22.00;99.90;;;;;;4888394;29;20036;-93
2022/08/12 11:27:41;;;;;;;15.43;11.88;;;22.10;99.90;;;;;;4888017;29;20363;-93
2022/08/12 11:30:18;;;;;;;19.30;11.95;;;22.20;99.90;;;;;;4895042;29;20027;-92
2022/08/12 11:32:46;;;;;;;15.73;11.18;;;22.30;99.90;;;;;;4874291;29;20045;-92
2022/08/12 11:35:12;;;;;;;19.88;12.48;;;22.30;99.90;;;;;;4888657;29;20028;-93
2022/08/12 11:37:40;;;;;;;18.35;12.50;;;22.40;99.90;;;;;;4887991;29;20061;-92
2022/08/12 11:40:07;;;;;;;16.80;11.90;;;22.40;99.90;;;;;;4894430;29;20017;-93
2022/08/12 11:42:36;;;;;;;20.90;14.95;;;22.40;99.90;;;;;;4949504;23;20045;-94
2022/08/12 11:45:10;;;;;;;20.95;14.82;;;22.40;99.90;;;;;;4910187;29;20045;-91
2022/08/12 11:47:47;;;;;;;20.50;14.20;;;22.60;99.90;;;;;;4885710;29;20048;-93
2022/08/12 12:00:45;;;;;;;19.02;13.10;;;22.50;99.90;;;;;;4904673;29;20112;-95
2022/08/12 12:03:29;;;;;;;17.88;14.20;;;22.50;99.90;;;;;;5209324;23;20131;-93
2022/08/12 12:05:58;;;;;;;18.65;14.90;;;22.60;99.90;;;;;;4890119;29;20095;-92
2022/08/12 14:18:14;;;;;;;16.58;12.45;;;26.60;99.90;;;;;;5532429;23;20019;-94
2022/08/12 14:20:44;;;;;;;18.83;13.65;;;26.50;99.90;;;;;;4879488;29;20044;-90
2022/08/12 14:23:12;;;;;;;16.63;12.93;;;26.60;99.90;;;;;;4848398;29;20037;-91
2022/08/12 14:25:39;;;;;;;16.50;13.15;;;26.50;99.90;;;;;;4861079;29;20028;-92
2022/08/12 14:28:18;;;;;;;20.23;13.45;;;26.50;99.90;;;;;;4867975;29;20258;-93
2022/08/12 14:30:59;;;;;;;18.58;14.45;;;26.50;99.90;;;;;;4871041;29;20479;-92
2022/08/12 14:33:29;;;;;;;17.77;14.23;;;26.50;99.90;;;;;;4874623;29;20057;-92
2022/08/12 14:35:57;;;;;;;16.95;13.82;;;26.40;99.90;;;;;;4882814;29;20040;-90
2022/08/12 14:38:27;;;;;;;16.75;13.48;;;26.40;99.90;;;;;;4885771;29;20029;-90
2022/08/12 14:41:14;;;;;;;18.23;13.45;;;26.50;99.90;;;;;;4887722;29;20025;-90
2022/08/12 14:43:45;;;;;;;18.70;14.95;;;26.50;99.90;;;;;;4889962;29;20072;-91
2022/08/12 14:46:20;;;;;;;18.60;13.43;;;26.40;99.90;;;;;;4886024;29;20127;-91
2022/08/12 14:48:52;;;;;;;19.08;14.70;;;26.50;99.90;;;;;;4885570;29;20383;-92
2022/08/12 14:51:22;;;;;;;19.80;13.68;;;26.50;99.90;;;;;;4874601;29;20036;-92
2022/08/12 14:53:50;;;;;;;19.60;14.35;;;26.40;99.90;;;;;;4874422;29;20486;-92
2022/08/12 14:56:19;;;;;;;17.23;13.18;;;26.30;99.90;;;;;;4867377;29;20040;-94
2022/08/12 15:01:38;;;;;;;16.85;12.85;;;26.10;99.90;;;;;;4867028;29;20092;-90
2022/08/12 15:04:05;;;;;;;20.80;13.90;;;25.90;99.90;;;;;;4867615;29;20495;-91
2022/08/12 15:06:32;;;;;;;14.88;12.75;;;25.90;99.90;;;;;;4868693;29;20065;-92
2022/08/12 15:08:59;;;;;;;17.35;13.93;;;25.90;99.90;;;;;;4867294;29;20033;-91
2022/08/12 15:11:25;;;;;;;16.02;13.13;;;25.90;99.90;;;;;;4866920;29;20032;-93
2022/08/12 15:13:54;;;;;;;14.57;12.52;;;26.00;99.90;;;;;;4866623;29;20111;-91
2022/08/12 15:16:21;;;;;;;18.75;13.63;;;26.10;99.90;;;;;;4871101;29;20036;-91
2022/08/12 15:18:49;;;;;;;15.73;12.80;;;26.20;99.90;;;;;;4878395;29;20052;-93
2022/08/12 15:21:17;;;;;;;17.67;12.95;;;26.20;99.90;;;;;;4873394;29;20061;-93
2022/08/12 15:23:44;;;;;;;15.23;12.43;;;26.10;99.90;;;;;;4880116;29;20033;-93
2022/08/12 15:26:14;;;;;;;20.88;12.75;;;26.20;99.90;;;;;;4876467;29;20057;-91
2022/08/12 15:28:45;;;;;;;19.80;13.27;;;26.20;99.90;;;;;;4872117;29;20041;-93
2022/08/12 15:31:32;;;;;;;14.73;11.50;;;26.10;99.90;;;;;;4881122;29;20055;-92
2022/08/12 15:33:59;;;;;;;18.50;13.32;;;26.20;99.90;;;;;;4884172;29;20036;-93
2022/08/12 15:36:26;;;;;;;17.38;12.77;;;26.20;99.90;;;;;;4870998;29;20061;-93
2022/08/12 15:38:54;;;;;;;19.38;13.32;;;26.30;99.90;;;;;;4876016;29;20123;-93
2022/08/12 15:41:22;;;;;;;20.40;14.85;;;26.30;99.90;;;;;;4874416;29;20028;-92
2022/08/12 15:43:49;;;;;;;16.45;13.55;;;26.30;99.90;;;;;;4876469;29;20033;-93
2022/08/12 15:46:16;;;;;;;20.10;13.20;;;26.20;99.90;;;;;;4878337;29;20033;-92
2022/08/12 16:02:27;;;;;;;;;;;;;;;;;;;;;
2022/08/12 16:04:58;;;;;;;15.80;12.75;;;25.80;99.90;;;;;;4906384;29;20389;-92
2022/08/12 18:29:14;;;;;;;12.40;8.45;;;20.60;99.90;;;;;;4893086;23;20084;-93
2022/08/12 18:31:41;;;;;;;13.40;9.05;;;20.70;99.90;;;;;;4928437;29;20137;-93
2022/08/12 18:34:07;;;;;;;9.32;7.07;;;20.80;99.90;;;;;;4926867;28;20019;-91
2022/08/12 18:36:37;;;;;;;12.27;8.00;;;20.80;99.90;;;;;;4926439;29;20038;-92
2022/08/12 18:39:03;;;;;;;10.93;7.20;;;20.80;99.90;;;;;;4895521;29;20107;-91
2022/08/12 18:41:34;;;;;;;11.98;7.72;;;20.60;99.90;;;;;;4905949;29;20028;-91
2022/08/12 18:44:10;;;;;;;10.18;7.45;;;20.60;99.90;;;;;;4906684;29;20051;-92
2022/08/12 18:46:47;;;;;;;13.88;8.25;;;20.60;99.90;;;;;;4890518;29;20036;-91
2022/08/12 18:49:19;;;;;;;12.38;7.97;;;20.70;99.90;;;;;;4905671;29;20115;-93
2022/08/12 18:51:51;;;;;;;12.38;7.13;;;20.70;99.90;;;;;;4905199;29;20509;-91
2022/08/12 18:54:27;;;;;;;11.00;6.20;;;20.70;99.90;;;;;;4905828;29;20035;-91
2022/08/12 18:56:57;;;;;;;9.68;5.88;;;20.60;99.90;;;;;;4890239;29;20028;-91
2022/08/12 18:59:25;;;;;;;8.60;5.90;;;20.60;99.90;;;;;;4888583;29;20115;-91
2022/08/12 19:01:56;;;;;;;9.88;5.80;;;20.60;99.90;;;;;;4904244;29;20028;-90
2022/08/12 19:04:27;;;;;;;13.05;7.13;;;20.60;99.90;;;;;;4904434;29;20025;-90
2022/08/12 19:06:58;;;;;;;14.60;7.45;;;20.70;99.90;;;;;;4904364;29;20044;-90
2022/08/12 19:09:36;;;;;;;17.75;8.85;;;20.80;99.90;;;;;;4888762;29;20028;-92
2022/08/12 19:14:53;;;;;;;20.67;10.50;;;20.80;99.90;;;;;;4904736;29;20031;-90
2022/08/12 19:17:20;;;;;;;18.10;9.10;;;20.90;99.90;;;;;;4906075;29;20035;-91
2022/08/12 19:19:47;;;;;;;13.88;7.07;;;21.00;99.90;;;;;;4914600;29;20095;-93
2022/08/12 19:26:34;;;;;;;12.90;6.57;;;20.80;99.90;;;;;;4826630;29;20132;-91
2022/08/12 19:29:06;;;;;;;11.23;6.80;;;20.70;99.90;;;;;;4813896;29;20066;-91
2022/08/12 19:31:39;;;;;;;11.35;7.55;;;20.80;99.90;;;;;;4814634;29;20046;-93
2022/08/12 19:34:10;;;;;;;10.63;5.90;;;20.70;99.90;;;;;;4829708;29;20049;-92
2022/08/12 19:36:36;;;;;;;8.35;5.57;;;20.50;99.90;;;;;;4828941;29;20050;-90
2022/08/12 19:39:04;;;;;;;13.43;6.13;;;20.40;99.90;;;;;;4813915;29;20037;-92
2022/08/12 19:41:47;;;;;;;8.23;5.57;;;20.30;99.90;;;;;;4830665;29;20078;-92
2022/08/12 19:44:16;;;;;;;11.77;6.78;;;20.20;99.90;;;;;;4834529;29;20042;-92
2022/08/12 19:46:49;;;;;;;9.73;6.53;;;20.20;99.90;;;;;;4814077;29;20038;-92
2022/08/12 19:49:16;;;;;;;13.52;6.75;;;20.20;99.90;;;;;;4828628;29;20450;-92
2022/08/12 19:51:48;;;;;;;8.98;5.88;;;20.10;99.90;;;;;;4828733;29;20030;-91
2022/08/12 19:54:23;;;;;;;10.38;6.60;;;20.10;99.90;;;;;;4828851;29;20057;-92
2022/08/12 19:56:52;;;;;;;9.18;6.68;;;20.10;99.90;;;;;;4828982;29;20061;-92
2022/08/12 19:59:36;;;;;;;12.73;7.13;;;20.10;99.90;;;;;;4828950;29;20037;-92
2022/08/12 20:02:11;;;;;;;12.15;7.15;;;20.10;99.90;;;;;;4830322;29;20058;-92
2022/08/12 20:04:42;;;;;;;10.38;6.63;;;20.20;99.90;;;;;;4887979;29;20032;-92
2022/08/12 20:07:12;;;;;;;9.50;6.68;;;20.30;99.90;;;;;;4903400;29;20491;-91
2022/08/12 20:09:42;;;;;;;9.82;6.68;;;20.20;99.90;;;;;;4887486;29;20028;-91
2022/08/12 20:12:10;;;;;;;11.27;7.15;;;20.20;99.90;;;;;;4905429;29;20059;-92
2022/08/12 20:14:43;;;;;;;11.27;6.78;;;20.20;99.90;;;;;;4888064;29;20024;-92
2022/08/12 20:17:22;;;;;;;10.35;6.85;;;20.10;99.90;;;;;;4900650;29;20096;-93
2022/08/12 20:19:51;;;;;;;10.82;7.32;;;20.10;99.90;;;;;;4903194;29;20569;-91
2022/08/12 20:22:27;;;;;;;9.35;6.30;;;20.10;99.90;;;;;;4886580;29;20605;-92
2022/08/12 20:24:55;;;;;;;10.82;6.57;;;20.10;99.90;;;;;;4887824;29;20033;-92
2022/08/12 20:27:35;;;;;;;11.77;6.45;;;20.10;99.90;;;;;;4905430;29;20029;-92
2022/08/12 20:30:07;;;;;;;9.50;6.15;;;20.00;99.90;;;;;;4895212;29;20057;-92
2022/08/12 20:32:37;;;;;;;9.70;6.45;;;20.00;99.90;;;;;;4886829;29;20052;-92
2022/08/12 20:35:08;;;;;;;7.63;5.82;;;20.00;99.90;;;;;;4882978;29;20025;-92
2022/08/12 20:37:44;;;;;;;13.05;6.05;;;20.00;99.90;;;;;;4890955;29;20053;-93
2022/08/12 20:40:11;;;;;;;10.73;5.65;;;20.10;99.90;;;;;;4883719;29;20482;-93
2022/08/12 20:42:38;;;;;;;9.88;5.55;;;20.10;99.90;;;;;;4883635;29;20047;-93
2022/08/12 20:45:06;;;;;;;10.93;5.90;;;20.00;99.90;;;;;;4883206;29;20065;-92
2022/08/12 20:47:32;;;;;;;8.48;5.20;;;20.10;99.90;;;;;;4889011;29;20052;-94
2022/08/12 20:50:02;;;;;;;10.77;5.43;;;20.20;99.90;;;;;;4888256;29;20047;-92
2022/08/12 20:52:33;;;;;;;12.38;6.38;;;20.10;99.90;;;;;;4908247;29;20036;-93
2022/08/12 20:55:01;;;;;;;10.52;5.93;;;20.00;99.90;;;;;;4903542;29;20533;-93
2022/08/12 20:57:30;;;;;;;12.27;6.35;;;20.00;99.90;;;;;;4903536;29;20021;-92
2022/08/12 20:59:57;;;;;;;11.13;6.32;;;20.00;99.90;;;;;;4904880;29;20039;-93
2022/08/12 21:02:24;;;;;;;11.20;6.68;;;20.10;99.90;;;;;;4883764;29;20039;-93
2022/08/12 21:07:37;;;;;;;10.35;7.57;;;20.20;99.90;;;;;;4902235;29;20072;-93
2022/08/12 21:10:05;;;;;;;12.25;7.32;;;20.20;99.90;;;;;;4902903;29;20024;-92
2022/08/12 21:12:35;;;;;;;9.05;6.75;;;20.20;99.90;;;;;;4907950;29;20036;-93
2022/08/12 21:15:07;;;;;;;11.68;7.53;;;20.30;99.90;;;;;;4908027;29;20100;-93
2022/08/12 21:17:39;;;;;;;12.77;7.82;;;20.20;99.90;;;;;;4908885;29;20081;-93
2022/08/12 21:20:07;;;;;;;10.20;7.10;;;20.20;99.90;;;;;;4904109;29;20028;-93
2022/08/12 21:22:37;;;;;;;10.93;7.90;;;20.30;99.90;;;;;;4903257;29;20032;-93
2022/08/12 21:28:23;;;;;;;10.77;7.18;;;20.30;99.90;;;;;;4856936;29;20072;-94
2022/08/12 21:31:11;;;;;;;13.75;7.53;;;20.30;99.90;;;;;;4848583;29;20093;-93
2022/08/12 21:40:33;;;;;;;9.45;7.30;;;20.30;99.90;;;;;;4918557;23;20060;-93
2022/08/12 21:44:12;;;;;;;;;;;;;;;;;;;;;
2022/08/12 21:50:52;;;;;;;11.05;7.53;;;20.40;99.90;;;;;;4961458;23;20115;-94
2022/08/12 21:53:57;;;;;;;10.85;8.20;;;20.40;99.90;;;;;;4886529;29;20028;-92
2022/08/12 21:56:27;;;;;;;11.27;8.13;;;20.40;99.90;;;;;;4902077;29;20036;-92
2022/08/12 21:59:00;;;;;;;13.35;8.38;;;20.50;99.90;;;;;;4901433;29;20271;-91
2022/08/12 22:01:26;;;;;;;15.52;8.98;;;20.50;99.90;;;;;;4884539;29;20024;-92
2022/08/12 22:06:41;;;;;;;10.02;6.95;;;20.50;99.90;;;;;;4904102;29;20043;-94
2022/08/12 22:09:27;;;;;;;11.70;7.90;;;20.50;99.90;;;;;;4907450;29;20127;-92
2022/08/12 22:17:54;;;;;;;9.63;7.95;;;20.30;99.90;;;;;;5862879;23;20031;-93
2022/08/12 22:32:04;;;;;;;15.27;8.52;;;20.00;99.90;;;;;;4904302;29;20119;-92
2022/08/12 22:34:31;;;;;;;8.70;7.15;;;20.00;99.90;;;;;;4904200;29;20552;-92
2022/08/12 22:36:57;;;;;;;11.32;7.93;;;20.00;99.90;;;;;;4904595;29;20040;-92
2022/08/12 22:39:27;;;;;;;13.18;9.15;;;20.00;99.90;;;;;;4901951;29;20032;-91
2022/08/12 22:47:38;;;;;;;13.18;9.82;;;20.10;99.90;;;;;;4901913;29;20059;-92
2022/08/12 22:50:07;;;;;;;12.00;8.57;;;20.20;99.90;;;;;;4901703;29;20033;-93
2022/08/12 22:52:36;;;;;;;16.70;9.80;;;20.20;99.90;;;;;;4902358;29;20039;-93
2022/08/12 22:55:17;;;;;;;14.45;8.65;;;20.10;99.90;;;;;;4900842;29;20036;-93
2022/08/12 22:57:44;;;;;;;14.15;9.38;;;20.00;99.90;;;;;;4901704;29;20028;-92
2022/08/12 23:00:14;;;;;;;13.50;9.75;;;20.00;99.90;;;;;;4904703;29;20478;-93
2022/08/12 23:02:41;;;;;;;15.85;10.98;;;19.90;99.90;;;;;;4904537;29;20040;-92
2022/08/12 23:05:19;;;;;;;16.58;11.13;;;19.90;99.90;;;;;;4889802;29;20024;-92
2022/08/12 23:07:49;;;;;;;19.23;11.18;;;19.80;99.90;;;;;;4920100;29;20486;-92
2022/08/12 23:10:25;;;;;;;16.08;11.00;;;19.80;99.90;;;;;;4909049;29;20020;-92
2022/08/12 23:15:44;;;;;;;13.82;11.30;;;19.80;99.90;;;;;;4904613;29;20031;-92
2022/08/12 23:18:19;;;;;;;16.00;11.43;;;19.90;99.90;;;;;;4904719;29;20047;-92
2022/08/12 23:20:50;;;;;;;16.25;11.77;;;20.00;99.90;;;;;;4904575;29;20210;-92
2022/08/12 23:23:22;;;;;;;16.23;11.07;;;20.10;99.90;;;;;;4904929;29;20044;-92
2022/08/12 23:25:55;;;;;;;14.93;10.70;;;20.20;99.90;;;;;;4904250;29;20032;-91
2022/08/12 23:31:07;;;;;;;15.15;10.60;;;20.10;99.90;;;;;;4900702;29;20060;-92
2022/08/12 23:33:50;;;;;;;12.13;9.77;;;20.10;99.90;;;;;;4885730;29;20032;-93
2022/08/12 23:36:29;;;;;;;13.57;10.35;;;20.10;99.90;;;;;;4885796;29;20028;-93
2022/08/12 23:39:03;;;;;;;18.20;11.05;;;20.00;99.90;;;;;;4901059;29;20033;-94
2022/08/12 23:41:36;;;;;;;15.00;10.88;;;20.00;99.90;;;;;;4901160;29;20047;-93
2022/08/12 23:44:11;;;;;;;14.73;10.23;;;20.10;99.90;;;;;;4901597;29;20088;-94
2022/08/12 23:46:56;;;;;;;15.25;9.70;;;20.00;99.90;;;;;;4887245;29;20032;-93
2022/08/12 23:49:26;;;;;;;14.52;9.80;;;20.00;99.90;;;;;;4885824;29;20039;-93
2022/08/12 23:52:07;;;;;;;12.18;8.77;;;20.00;99.90;;;;;;4887266;29;20060;-94
2022/08/12 23:54:59;;;;;;;11.90;8.27;;;20.00;99.90;;;;;;4901596;29;20027;-92
2022/08/12 23:57:51;;;;;;;12.93;8.95;;;19.90;99.90;;;;;;4899985;29;20073;-94
